sensor_id;sensor_type;location;lat;lon;timestamp;temperature;humidity
74661;SHT31;63191;39.566;2.654;2023-06-22T00:02:18;25.59;78.17
74661;SHT31;63191;39.566;2.654;2023-06-22T00:04:43;25.58;78.24
74661;SHT31;63191;39.566;2.654;2023-06-22T00:07:10;25.59;78.30
74661;SHT31;63191;39.566;2.654;2023-06-22T00:09:36;25.60;78.30
74661;SHT31;63191;39.566;2.654;2023-06-22T00:12:02;25.60;78.31
74661;SHT31;63191;39.566;2.654;2023-06-22T00:14:28;25.61;78.30
74661;SHT31;63191;39.566;2.654;2023-06-22T00:16:54;25.62;78.27
74661;SHT31;63191;39.566;2.654;2023-06-22T00:19:24;25.64;78.14
74661;SHT31;63191;39.566;2.654;2023-06-22T00:21:50;25.64;77.95
74661;SHT31;63191;39.566;2.654;2023-06-22T00:24:19;25.65;77.71
74661;SHT31;63191;39.566;2.654;2023-06-22T00:26:47;25.67;77.38
74661;SHT31;63191;39.566;2.654;2023-06-22T00:29:14;25.69;77.03
74661;SHT31;63191;39.566;2.654;2023-06-22T00:31:40;25.73;76.59
74661;SHT31;63191;39.566;2.654;2023-06-22T00:34:06;25.75;76.24
74661;SHT31;63191;39.566;2.654;2023-06-22T00:36:34;25.76;75.94
74661;SHT31;63191;39.566;2.654;2023-06-22T00:39:02;25.77;75.71
74661;SHT31;63191;39.566;2.654;2023-06-22T00:41:29;25.78;75.44
74661;SHT31;63191;39.566;2.654;2023-06-22T00:43:55;25.77;75.12
74661;SHT31;63191;39.566;2.654;2023-06-22T00:46:21;25.77;74.89
74661;SHT31;63191;39.566;2.654;2023-06-22T00:48:48;25.76;74.80
74661;SHT31;63191;39.566;2.654;2023-06-22T00:51:14;25.75;74.70
74661;SHT31;63191;39.566;2.654;2023-06-22T00:53:40;25.73;74.53
74661;SHT31;63191;39.566;2.654;2023-06-22T00:56:08;25.70;74.23
74661;SHT31;63191;39.566;2.654;2023-06-22T00:58:36;25.69;74.04
74661;SHT31;63191;39.566;2.654;2023-06-22T01:01:05;25.67;73.96
74661;SHT31;63191;39.566;2.654;2023-06-22T01:03:30;25.64;73.81
74661;SHT31;63191;39.566;2.654;2023-06-22T01:05:58;25.63;73.66
74661;SHT31;63191;39.566;2.654;2023-06-22T01:08:42;25.61;73.55
74661;SHT31;63191;39.566;2.654;2023-06-22T01:11:23;25.60;73.38
74661;SHT31;63191;39.566;2.654;2023-06-22T01:14:06;25.58;73.30
74661;SHT31;63191;39.566;2.654;2023-06-22T01:16:41;25.56;73.32
74661;SHT31;63191;39.566;2.654;2023-06-22T01:19:20;25.53;73.41
74661;SHT31;63191;39.566;2.654;2023-06-22T01:22:06;25.49;73.59
74661;SHT31;63191;39.566;2.654;2023-06-22T01:24:45;25.47;73.70
74661;SHT31;63191;39.566;2.654;2023-06-22T01:30:21;25.44;73.98
74661;SHT31;63191;39.566;2.654;2023-06-22T01:32:51;25.41;74.04
74661;SHT31;63191;39.566;2.654;2023-06-22T01:35:18;25.39;74.12
74661;SHT31;63191;39.566;2.654;2023-06-22T01:37:45;25.35;74.22
74661;SHT31;63191;39.566;2.654;2023-06-22T01:40:12;25.35;74.52
74661;SHT31;63191;39.566;2.654;2023-06-22T01:42:38;25.33;74.61
74661;SHT31;63191;39.566;2.654;2023-06-22T01:45:05;25.31;74.80
74661;SHT31;63191;39.566;2.654;2023-06-22T01:47:32;25.29;74.97
74661;SHT31;63191;39.566;2.654;2023-06-22T01:49:59;25.27;75.15
74661;SHT31;63191;39.566;2.654;2023-06-22T01:52:24;25.23;75.32
74661;SHT31;63191;39.566;2.654;2023-06-22T01:54:50;25.20;75.41
74661;SHT31;63191;39.566;2.654;2023-06-22T01:57:16;25.18;75.54
74661;SHT31;63191;39.566;2.654;2023-06-22T01:59:45;25.16;75.72
74661;SHT31;63191;39.566;2.654;2023-06-22T02:02:19;25.15;75.84
74661;SHT31;63191;39.566;2.654;2023-06-22T02:04:56;25.12;75.93
74661;SHT31;63191;39.566;2.654;2023-06-22T02:07:28;25.10;76.06
74661;SHT31;63191;39.566;2.654;2023-06-22T02:09:59;25.08;76.19
74661;SHT31;63191;39.566;2.654;2023-06-22T02:12:27;25.06;76.32
74661;SHT31;63191;39.566;2.654;2023-06-22T02:14:54;25.07;76.39
74661;SHT31;63191;39.566;2.654;2023-06-22T02:17:21;25.08;76.42
74661;SHT31;63191;39.566;2.654;2023-06-22T02:19:48;25.07;76.51
74661;SHT31;63191;39.566;2.654;2023-06-22T02:22:14;25.09;76.60
74661;SHT31;63191;39.566;2.654;2023-06-22T02:24:40;25.09;76.67
74661;SHT31;63191;39.566;2.654;2023-06-22T02:27:05;25.08;76.76
74661;SHT31;63191;39.566;2.654;2023-06-22T02:29:32;25.09;76.91
74661;SHT31;63191;39.566;2.654;2023-06-22T02:31:58;25.10;77.13
74661;SHT31;63191;39.566;2.654;2023-06-22T02:34:24;25.12;77.29
74661;SHT31;63191;39.566;2.654;2023-06-22T02:36:50;25.13;77.29
74661;SHT31;63191;39.566;2.654;2023-06-22T02:39:19;25.14;77.29
74661;SHT31;63191;39.566;2.654;2023-06-22T02:41:48;25.15;77.31
74661;SHT31;63191;39.566;2.654;2023-06-22T02:44:15;25.15;77.43
74661;SHT31;63191;39.566;2.654;2023-06-22T02:46:41;25.15;77.54
74661;SHT31;63191;39.566;2.654;2023-06-22T02:49:07;25.16;77.60
74661;SHT31;63191;39.566;2.654;2023-06-22T02:51:33;25.16;77.60
74661;SHT31;63191;39.566;2.654;2023-06-22T02:53:59;25.16;77.59
74661;SHT31;63191;39.566;2.654;2023-06-22T02:56:25;25.17;77.63
74661;SHT31;63191;39.566;2.654;2023-06-22T02:58:52;25.17;77.69
74661;SHT31;63191;39.566;2.654;2023-06-22T03:01:18;25.18;77.80
74661;SHT31;63191;39.566;2.654;2023-06-22T03:03:49;25.17;77.80
74661;SHT31;63191;39.566;2.654;2023-06-22T03:06:15;25.18;77.86
74661;SHT31;63191;39.566;2.654;2023-06-22T03:08:41;25.19;77.95
74661;SHT31;63191;39.566;2.654;2023-06-22T03:11:07;25.20;78.00
74661;SHT31;63191;39.566;2.654;2023-06-22T03:13:33;25.20;78.05
74661;SHT31;63191;39.566;2.654;2023-06-22T03:15:59;25.21;78.21
74661;SHT31;63191;39.566;2.654;2023-06-22T03:18:24;25.20;78.35
74661;SHT31;63191;39.566;2.654;2023-06-22T03:20:50;25.21;78.40
74661;SHT31;63191;39.566;2.654;2023-06-22T03:23:16;25.21;78.40
74661;SHT31;63191;39.566;2.654;2023-06-22T03:25:42;25.22;78.60
74661;SHT31;63191;39.566;2.654;2023-06-22T03:28:10;25.21;78.76
74661;SHT31;63191;39.566;2.654;2023-06-22T03:30:36;25.20;78.80
74661;SHT31;63191;39.566;2.654;2023-06-22T03:33:01;25.20;78.80
74661;SHT31;63191;39.566;2.654;2023-06-22T03:35:27;25.21;78.93
74661;SHT31;63191;39.566;2.654;2023-06-22T03:37:53;25.21;79.01
74661;SHT31;63191;39.566;2.654;2023-06-22T03:40:19;25.20;79.00
74661;SHT31;63191;39.566;2.654;2023-06-22T03:42:45;25.20;79.02
74661;SHT31;63191;39.566;2.654;2023-06-22T03:45:11;25.20;79.00
74661;SHT31;63191;39.566;2.654;2023-06-22T03:47:37;25.19;79.14
74661;SHT31;63191;39.566;2.654;2023-06-22T03:50:03;25.18;79.27
74661;SHT31;63191;39.566;2.654;2023-06-22T03:52:31;25.18;79.31
74661;SHT31;63191;39.566;2.654;2023-06-22T03:54:57;25.17;79.31
74661;SHT31;63191;39.566;2.654;2023-06-22T03:57:24;25.18;79.37
74661;SHT31;63191;39.566;2.654;2023-06-22T03:59:50;25.17;79.47
74661;SHT31;63191;39.566;2.654;2023-06-22T04:02:15;25.17;79.52
74661;SHT31;63191;39.566;2.654;2023-06-22T04:04:41;25.15;79.60
74661;SHT31;63191;39.566;2.654;2023-06-22T04:07:07;25.15;79.61
74661;SHT31;63191;39.566;2.654;2023-06-22T04:09:33;25.15;79.87
74661;SHT31;63191;39.566;2.654;2023-06-22T04:12:01;25.12;80.19
74661;SHT31;63191;39.566;2.654;2023-06-22T04:14:27;25.10;80.46
74661;SHT31;63191;39.566;2.654;2023-06-22T04:16:53;25.08;80.70
74661;SHT31;63191;39.566;2.654;2023-06-22T04:19:18;25.06;80.95
74661;SHT31;63191;39.566;2.654;2023-06-22T04:21:44;25.05;81.20
74661;SHT31;63191;39.566;2.654;2023-06-22T04:24:11;25.05;81.38
74661;SHT31;63191;39.566;2.654;2023-06-22T04:26:37;25.07;81.50
74661;SHT31;63191;39.566;2.654;2023-06-22T04:29:03;25.09;81.52
74661;SHT31;63191;39.566;2.654;2023-06-22T04:31:33;25.11;81.59
74661;SHT31;63191;39.566;2.654;2023-06-22T04:34:03;25.15;81.56
74661;SHT31;63191;39.566;2.654;2023-06-22T04:36:38;25.19;81.37
74661;SHT31;63191;39.566;2.654;2023-06-22T04:39:06;25.22;81.18
74661;SHT31;63191;39.566;2.654;2023-06-22T04:41:37;25.26;80.91
74661;SHT31;63191;39.566;2.654;2023-06-22T04:46:50;25.32;79.96
74661;SHT31;63191;39.566;2.654;2023-06-22T04:49:25;25.36;79.42
74661;SHT31;63191;39.566;2.654;2023-06-22T04:52:00;25.40;78.95
74661;SHT31;63191;39.566;2.654;2023-06-22T04:54:27;25.45;78.65
74661;SHT31;63191;39.566;2.654;2023-06-22T04:56:53;25.49;78.36
74661;SHT31;63191;39.566;2.654;2023-06-22T04:59:22;25.55;78.15
74661;SHT31;63191;39.566;2.654;2023-06-22T05:01:55;25.59;77.94
74661;SHT31;63191;39.566;2.654;2023-06-22T05:04:26;25.62;77.70
74661;SHT31;63191;39.566;2.654;2023-06-22T05:06:53;25.66;77.51
74661;SHT31;63191;39.566;2.654;2023-06-22T05:09:20;25.69;77.35
74661;SHT31;63191;39.566;2.654;2023-06-22T05:11:47;25.72;77.21
74661;SHT31;63191;39.566;2.654;2023-06-22T05:14:13;25.76;77.04
74661;SHT31;63191;39.566;2.654;2023-06-22T05:16:40;25.80;76.93
74661;SHT31;63191;39.566;2.654;2023-06-22T05:19:07;25.83;77.08
74661;SHT31;63191;39.566;2.654;2023-06-22T05:21:33;25.86;77.39
74661;SHT31;63191;39.566;2.654;2023-06-22T05:24:00;25.88;77.61
74661;SHT31;63191;39.566;2.654;2023-06-22T05:26:28;25.91;77.75
74661;SHT31;63191;39.566;2.654;2023-06-22T05:28:56;25.95;77.96
74661;SHT31;63191;39.566;2.654;2023-06-22T05:31:22;26.00;78.22
74661;SHT31;63191;39.566;2.654;2023-06-22T05:33:52;26.03;78.39
74661;SHT31;63191;39.566;2.654;2023-06-22T05:36:19;26.02;78.22
74661;SHT31;63191;39.566;2.654;2023-06-22T05:38:46;25.97;78.10
74661;SHT31;63191;39.566;2.654;2023-06-22T05:41:12;25.96;78.21
74661;SHT31;63191;39.566;2.654;2023-06-22T05:43:41;25.96;78.11
74661;SHT31;63191;39.566;2.654;2023-06-22T05:46:07;25.94;78.07
74661;SHT31;63191;39.566;2.654;2023-06-22T05:48:33;25.94;78.11
74661;SHT31;63191;39.566;2.654;2023-06-22T05:50:59;26.06;78.01
74661;SHT31;63191;39.566;2.654;2023-06-22T05:53:25;26.16;77.84
74661;SHT31;63191;39.566;2.654;2023-06-22T05:55:50;26.10;77.97
74661;SHT31;63191;39.566;2.654;2023-06-22T05:58:16;26.09;78.09
74661;SHT31;63191;39.566;2.654;2023-06-22T06:00:42;26.36;77.88
74661;SHT31;63191;39.566;2.654;2023-06-22T06:03:08;26.35;77.91
74661;SHT31;63191;39.566;2.654;2023-06-22T06:05:36;26.34;78.00
74661;SHT31;63191;39.566;2.654;2023-06-22T06:08:03;26.42;78.01
74661;SHT31;63191;39.566;2.654;2023-06-22T06:10:32;26.49;77.90
74661;SHT31;63191;39.566;2.654;2023-06-22T06:12:59;26.53;77.69
74661;SHT31;63191;39.566;2.654;2023-06-22T06:15:27;26.56;77.57
74661;SHT31;63191;39.566;2.654;2023-06-22T06:17:54;26.59;77.39
74661;SHT31;63191;39.566;2.654;2023-06-22T06:20:20;26.82;76.96
74661;SHT31;63191;39.566;2.654;2023-06-22T06:22:48;26.91;76.95
74661;SHT31;63191;39.566;2.654;2023-06-22T06:25:15;27.01;76.98
74661;SHT31;63191;39.566;2.654;2023-06-22T06:27:42;27.06;76.96
74661;SHT31;63191;39.566;2.654;2023-06-22T06:30:09;27.18;76.90
74661;SHT31;63191;39.566;2.654;2023-06-22T06:32:37;27.27;76.86
74661;SHT31;63191;39.566;2.654;2023-06-22T06:35:06;27.34;76.77
74661;SHT31;63191;39.566;2.654;2023-06-22T06:37:36;27.38;76.54
74661;SHT31;63191;39.566;2.654;2023-06-22T06:40:04;27.37;76.41
74661;SHT31;63191;39.566;2.654;2023-06-22T06:42:38;27.42;76.42
74661;SHT31;63191;39.566;2.654;2023-06-22T06:45:10;27.48;76.34
74661;SHT31;63191;39.566;2.654;2023-06-22T06:47:51;27.49;76.29
74661;SHT31;63191;39.566;2.654;2023-06-22T06:50:17;27.49;76.05
74661;SHT31;63191;39.566;2.654;2023-06-22T06:52:44;27.50;75.69
74661;SHT31;63191;39.566;2.654;2023-06-22T06:55:10;27.53;75.51
74661;SHT31;63191;39.566;2.654;2023-06-22T06:57:37;27.64;75.41
74661;SHT31;63191;39.566;2.654;2023-06-22T07:00:08;27.77;75.28
74661;SHT31;63191;39.566;2.654;2023-06-22T07:02:40;27.93;74.61
74661;SHT31;63191;39.566;2.654;2023-06-22T07:05:08;28.01;74.00
74661;SHT31;63191;39.566;2.654;2023-06-22T07:07:35;28.12;73.40
74661;SHT31;63191;39.566;2.654;2023-06-22T07:10:02;28.23;72.99
74661;SHT31;63191;39.566;2.654;2023-06-22T07:12:29;28.44;72.78
74661;SHT31;63191;39.566;2.654;2023-06-22T07:15:00;28.64;72.29
74661;SHT31;63191;39.566;2.654;2023-06-22T07:17:34;28.92;71.31
74661;SHT31;63191;39.566;2.654;2023-06-22T07:20:01;29.17;70.18
74661;SHT31;63191;39.566;2.654;2023-06-22T07:22:33;29.37;69.31
74661;SHT31;63191;39.566;2.654;2023-06-22T07:24:59;29.52;67.99
74661;SHT31;63191;39.566;2.654;2023-06-22T07:27:26;29.77;67.62
74661;SHT31;63191;39.566;2.654;2023-06-22T07:29:52;30.00;66.70
74661;SHT31;63191;39.566;2.654;2023-06-22T07:32:18;30.29;65.70
74661;SHT31;63191;39.566;2.654;2023-06-22T07:34:43;30.66;64.62
74661;SHT31;63191;39.566;2.654;2023-06-22T07:37:09;31.04;63.38
74661;SHT31;63191;39.566;2.654;2023-06-22T07:39:35;31.29;62.10
74661;SHT31;63191;39.566;2.654;2023-06-22T07:42:02;31.49;61.15
74661;SHT31;63191;39.566;2.654;2023-06-22T07:44:29;31.73;59.83
74661;SHT31;63191;39.566;2.654;2023-06-22T07:46:55;31.88;58.32
74661;SHT31;63191;39.566;2.654;2023-06-22T07:49:21;32.00;57.38
74661;SHT31;63191;39.566;2.654;2023-06-22T07:51:47;32.08;56.36
74661;SHT31;63191;39.566;2.654;2023-06-22T07:54:12;32.08;56.24
74661;SHT31;63191;39.566;2.654;2023-06-22T07:56:41;31.99;56.27
74661;SHT31;63191;39.566;2.654;2023-06-22T07:59:06;31.84;56.37
74661;SHT31;63191;39.566;2.654;2023-06-22T08:01:32;31.68;56.74
74661;SHT31;63191;39.566;2.654;2023-06-22T08:03:58;31.55;56.77
74661;SHT31;63191;39.566;2.654;2023-06-22T08:06:23;31.65;56.74
74661;SHT31;63191;39.566;2.654;2023-06-22T08:08:49;31.88;56.63
74661;SHT31;63191;39.566;2.654;2023-06-22T08:11:17;32.00;56.11
74661;SHT31;63191;39.566;2.654;2023-06-22T08:13:43;32.00;56.05
74661;SHT31;63191;39.566;2.654;2023-06-22T08:16:09;31.94;55.30
74661;SHT31;63191;39.566;2.654;2023-06-22T08:18:35;31.83;55.19
74661;SHT31;63191;39.566;2.654;2023-06-22T08:21:01;31.74;55.25
74661;SHT31;63191;39.566;2.654;2023-06-22T08:23:26;31.63;55.28
74661;SHT31;63191;39.566;2.654;2023-06-22T08:25:52;31.54;55.67
74661;SHT31;63191;39.566;2.654;2023-06-22T08:28:18;31.47;55.61
74661;SHT31;63191;39.566;2.654;2023-06-22T08:30:44;31.39;55.68
74661;SHT31;63191;39.566;2.654;2023-06-22T08:33:09;31.33;55.77
74661;SHT31;63191;39.566;2.654;2023-06-22T08:35:35;31.33;55.89
74661;SHT31;63191;39.566;2.654;2023-06-22T08:38:01;31.30;55.84
74661;SHT31;63191;39.566;2.654;2023-06-22T08:40:48;31.26;55.84
74661;SHT31;63191;39.566;2.654;2023-06-22T08:43:13;31.23;55.69
74661;SHT31;63191;39.566;2.654;2023-06-22T08:45:40;31.15;55.91
74661;SHT31;63191;39.566;2.654;2023-06-22T08:48:05;31.01;56.21
74661;SHT31;63191;39.566;2.654;2023-06-22T08:50:31;30.94;56.53
74661;SHT31;63191;39.566;2.654;2023-06-22T08:52:57;30.84;56.57
74661;SHT31;63191;39.566;2.654;2023-06-22T08:55:23;30.68;56.59
74661;SHT31;63191;39.566;2.654;2023-06-22T08:57:48;30.52;56.81
74661;SHT31;63191;39.566;2.654;2023-06-22T09:00:14;30.51;57.11
74661;SHT31;63191;39.566;2.654;2023-06-22T09:02:45;30.59;57.00
74661;SHT31;63191;39.566;2.654;2023-06-22T09:05:12;30.76;56.99
74661;SHT31;63191;39.566;2.654;2023-06-22T09:07:41;31.08;56.71
74661;SHT31;63191;39.566;2.654;2023-06-22T09:15:42;31.44;55.74
74661;SHT31;63191;39.566;2.654;2023-06-22T09:18:10;31.49;55.59
74661;SHT31;63191;39.566;2.654;2023-06-22T09:20:37;31.65;55.34
74661;SHT31;63191;39.566;2.654;2023-06-22T09:23:03;31.65;55.30
74661;SHT31;63191;39.566;2.654;2023-06-22T09:31:16;31.99;55.10
74661;SHT31;63191;39.566;2.654;2023-06-22T09:33:42;32.44;54.51
74661;SHT31;63191;39.566;2.654;2023-06-22T09:36:09;32.79;53.65
74661;SHT31;63191;39.566;2.654;2023-06-22T09:38:35;33.26;52.56
74661;SHT31;63191;39.566;2.654;2023-06-22T09:41:03;33.47;51.73
74661;SHT31;63191;39.566;2.654;2023-06-22T09:43:32;33.46;51.50
74661;SHT31;63191;39.566;2.654;2023-06-22T09:46:01;33.18;51.18
74661;SHT31;63191;39.566;2.654;2023-06-22T09:48:28;32.89;52.69
74661;SHT31;63191;39.566;2.654;2023-06-22T09:51:14;32.72;54.36
74661;SHT31;63191;39.566;2.654;2023-06-22T09:53:40;32.67;54.82
74661;SHT31;63191;39.566;2.654;2023-06-22T09:56:06;32.83;55.04
74661;SHT31;63191;39.566;2.654;2023-06-22T09:58:31;32.97;55.42
74661;SHT31;63191;39.566;2.654;2023-06-22T10:00:57;32.90;55.10
74661;SHT31;63191;39.566;2.654;2023-06-22T10:03:23;32.75;54.82
74661;SHT31;63191;39.566;2.654;2023-06-22T10:11:22;33.93;53.29
74661;SHT31;63191;39.566;2.654;2023-06-22T10:13:54;34.51;52.20
74661;SHT31;63191;39.566;2.654;2023-06-22T10:16:20;34.88;51.10
74661;SHT31;63191;39.566;2.654;2023-06-22T10:18:46;34.83;49.53
74661;SHT31;63191;39.566;2.654;2023-06-22T10:24:01;34.59;50.50
74661;SHT31;63191;39.566;2.654;2023-06-22T10:26:32;34.81;49.70
74661;SHT31;63191;39.566;2.654;2023-06-22T10:28:59;35.21;48.94
74661;SHT31;63191;39.566;2.654;2023-06-22T10:31:25;35.32;46.14
74661;SHT31;63191;39.566;2.654;2023-06-22T10:33:53;35.56;44.78
74661;SHT31;63191;39.566;2.654;2023-06-22T10:36:20;35.59;44.52
74661;SHT31;63191;39.566;2.654;2023-06-22T10:38:47;35.62;44.06
74661;SHT31;63191;39.566;2.654;2023-06-22T10:41:14;35.63;43.20
74661;SHT31;63191;39.566;2.654;2023-06-22T10:43:41;35.64;43.20
74661;SHT31;63191;39.566;2.654;2023-06-22T10:46:09;35.52;43.00
74661;SHT31;63191;39.566;2.654;2023-06-22T10:48:35;35.45;43.43
74661;SHT31;63191;39.566;2.654;2023-06-22T10:51:02;35.55;43.20
74661;SHT31;63191;39.566;2.654;2023-06-22T10:53:28;35.80;42.88
74661;SHT31;63191;39.566;2.654;2023-06-22T10:55:54;35.88;42.16
74661;SHT31;63191;39.566;2.654;2023-06-22T10:58:20;35.81;41.58
74661;SHT31;63191;39.566;2.654;2023-06-22T11:00:46;35.86;41.75
74661;SHT31;63191;39.566;2.654;2023-06-22T11:03:13;35.76;41.31
74661;SHT31;63191;39.566;2.654;2023-06-22T11:05:39;35.78;40.83
74661;SHT31;63191;39.566;2.654;2023-06-22T11:08:06;35.87;40.80
74661;SHT31;63191;39.566;2.654;2023-06-22T11:10:33;35.81;40.04
74661;SHT31;63191;39.566;2.654;2023-06-22T11:12:59;35.62;39.58
74661;SHT31;63191;39.566;2.654;2023-06-22T11:15:25;35.64;39.41
74661;SHT31;63191;39.566;2.654;2023-06-22T11:17:51;35.76;39.03
74661;SHT31;63191;39.566;2.654;2023-06-22T11:20:17;35.81;39.02
74661;SHT31;63191;39.566;2.654;2023-06-22T11:22:43;36.02;38.74
74661;SHT31;63191;39.566;2.654;2023-06-22T11:25:09;36.14;38.33
74661;SHT31;63191;39.566;2.654;2023-06-22T11:27:37;36.34;37.72
74661;SHT31;63191;39.566;2.654;2023-06-22T11:30:04;36.48;37.31
74661;SHT31;63191;39.566;2.654;2023-06-22T11:32:30;36.61;37.46
74661;SHT31;63191;39.566;2.654;2023-06-22T11:34:56;36.97;36.99
74661;SHT31;63191;39.566;2.654;2023-06-22T11:37:23;37.35;36.37
74661;SHT31;63191;39.566;2.654;2023-06-22T11:39:50;37.73;35.74
74661;SHT31;63191;39.566;2.654;2023-06-22T11:42:17;38.06;35.75
74661;SHT31;63191;39.566;2.654;2023-06-22T11:44:43;38.27;35.59
74661;SHT31;63191;39.566;2.654;2023-06-22T11:47:09;38.28;34.94
74661;SHT31;63191;39.566;2.654;2023-06-22T11:49:35;38.27;34.51
74661;SHT31;63191;39.566;2.654;2023-06-22T11:52:01;38.32;34.84
74661;SHT31;63191;39.566;2.654;2023-06-22T11:54:26;38.33;37.20
74661;SHT31;63191;39.566;2.654;2023-06-22T11:56:52;38.17;37.46
74661;SHT31;63191;39.566;2.654;2023-06-22T11:59:18;37.83;38.36
74661;SHT31;63191;39.566;2.654;2023-06-22T12:01:43;37.62;39.64
74661;SHT31;63191;39.566;2.654;2023-06-22T12:04:09;37.45;38.92
74661;SHT31;63191;39.566;2.654;2023-06-22T12:06:37;37.42;37.19
74661;SHT31;63191;39.566;2.654;2023-06-22T12:09:07;37.58;36.33
74661;SHT31;63191;39.566;2.654;2023-06-22T12:11:33;37.83;35.45
74661;SHT31;63191;39.566;2.654;2023-06-22T12:13:59;38.07;35.10
74661;SHT31;63191;39.566;2.654;2023-06-22T12:16:27;38.25;34.86
74661;SHT31;63191;39.566;2.654;2023-06-22T12:18:53;38.49;34.45
74661;SHT31;63191;39.566;2.654;2023-06-22T12:21:19;38.75;34.29
74661;SHT31;63191;39.566;2.654;2023-06-22T12:23:45;39.01;34.06
74661;SHT31;63191;39.566;2.654;2023-06-22T12:26:11;39.24;33.51
74661;SHT31;63191;39.566;2.654;2023-06-22T12:28:37;39.39;33.20
74661;SHT31;63191;39.566;2.654;2023-06-22T12:31:03;39.44;34.59
74661;SHT31;63191;39.566;2.654;2023-06-22T12:33:28;39.37;36.11
74661;SHT31;63191;39.566;2.654;2023-06-22T12:36:11;39.05;36.92
74661;SHT31;63191;39.566;2.654;2023-06-22T12:38:36;38.63;38.72
74661;SHT31;63191;39.566;2.654;2023-06-22T12:41:02;38.19;40.25
74661;SHT31;63191;39.566;2.654;2023-06-22T12:43:28;37.92;40.96
74661;SHT31;63191;39.566;2.654;2023-06-22T12:45:54;37.76;41.11
74661;SHT31;63191;39.566;2.654;2023-06-22T12:48:19;37.27;41.90
74661;SHT31;63191;39.566;2.654;2023-06-22T12:50:47;36.60;43.05
74661;SHT31;63191;39.566;2.654;2023-06-22T12:53:13;35.93;44.55
74661;SHT31;63191;39.566;2.654;2023-06-22T12:55:39;35.31;45.40
74661;SHT31;63191;39.566;2.654;2023-06-22T12:58:05;34.88;47.40
74661;SHT31;63191;39.566;2.654;2023-06-22T13:00:30;34.79;47.91
74661;SHT31;63191;39.566;2.654;2023-06-22T13:02:56;34.72;47.34
74661;SHT31;63191;39.566;2.654;2023-06-22T13:05:22;34.66;47.52
74661;SHT31;63191;39.566;2.654;2023-06-22T13:07:48;34.66;47.88
74661;SHT31;63191;39.566;2.654;2023-06-22T13:10:14;34.61;49.17
74661;SHT31;63191;39.566;2.654;2023-06-22T13:12:39;34.58;49.86
74661;SHT31;63191;39.566;2.654;2023-06-22T13:15:05;34.57;49.67
74661;SHT31;63191;39.566;2.654;2023-06-22T13:17:32;34.26;50.17
74661;SHT31;63191;39.566;2.654;2023-06-22T13:19:58;34.11;50.30
74661;SHT31;63191;39.566;2.654;2023-06-22T13:22:30;34.16;50.04
74661;SHT31;63191;39.566;2.654;2023-06-22T13:25:08;34.19;50.14
74661;SHT31;63191;39.566;2.654;2023-06-22T13:27:38;34.13;50.43
74661;SHT31;63191;39.566;2.654;2023-06-22T13:30:05;34.18;50.44
74661;SHT31;63191;39.566;2.654;2023-06-22T13:32:32;34.16;49.92
74661;SHT31;63191;39.566;2.654;2023-06-22T13:34:58;34.12;50.14
74661;SHT31;63191;39.566;2.654;2023-06-22T13:37:23;34.19;50.00
74661;SHT31;63191;39.566;2.654;2023-06-22T13:39:50;34.42;48.67
74661;SHT31;63191;39.566;2.654;2023-06-22T13:42:16;34.60;49.34
74661;SHT31;63191;39.566;2.654;2023-06-22T13:44:42;34.70;49.42
74661;SHT31;63191;39.566;2.654;2023-06-22T13:47:08;34.80;49.75
74661;SHT31;63191;39.566;2.654;2023-06-22T13:49:33;34.89;49.23
74661;SHT31;63191;39.566;2.654;2023-06-22T13:51:59;34.99;49.49
74661;SHT31;63191;39.566;2.654;2023-06-22T13:54:28;35.15;49.17
74661;SHT31;63191;39.566;2.654;2023-06-22T13:56:54;35.30;49.00
74661;SHT31;63191;39.566;2.654;2023-06-22T13:59:19;35.21;44.79
74661;SHT31;63191;39.566;2.654;2023-06-22T14:01:46;35.04;45.40
74661;SHT31;63191;39.566;2.654;2023-06-22T14:04:12;34.95;45.42
74661;SHT31;63191;39.566;2.654;2023-06-22T14:06:39;34.92;47.28
74661;SHT31;63191;39.566;2.654;2023-06-22T14:09:05;35.02;48.03
74661;SHT31;63191;39.566;2.654;2023-06-22T14:11:32;35.08;46.00
74661;SHT31;63191;39.566;2.654;2023-06-22T14:13:58;34.84;44.40
74661;SHT31;63191;39.566;2.654;2023-06-22T14:16:24;34.61;44.32
74661;SHT31;63191;39.566;2.654;2023-06-22T14:18:49;34.54;43.76
74661;SHT31;63191;39.566;2.654;2023-06-22T14:21:15;34.56;44.39
74661;SHT31;63191;39.566;2.654;2023-06-22T14:23:41;34.58;43.51
74661;SHT31;63191;39.566;2.654;2023-06-22T14:26:06;34.62;42.60
74661;SHT31;63191;39.566;2.654;2023-06-22T14:28:32;34.60;41.78
74661;SHT31;63191;39.566;2.654;2023-06-22T14:30:58;34.60;43.01
74661;SHT31;63191;39.566;2.654;2023-06-22T14:33:23;34.71;44.30
74661;SHT31;63191;39.566;2.654;2023-06-22T14:35:49;34.78;44.39
74661;SHT31;63191;39.566;2.654;2023-06-22T14:38:15;34.82;42.68
74661;SHT31;63191;39.566;2.654;2023-06-22T14:40:40;34.71;43.01
74661;SHT31;63191;39.566;2.654;2023-06-22T14:43:06;34.66;43.09
74661;SHT31;63191;39.566;2.654;2023-06-22T14:45:32;34.80;43.64
74661;SHT31;63191;39.566;2.654;2023-06-22T14:47:57;34.97;42.13
74661;SHT31;63191;39.566;2.654;2023-06-22T14:50:23;34.99;40.37
74661;SHT31;63191;39.566;2.654;2023-06-22T14:52:49;34.92;41.34
74661;SHT31;63191;39.566;2.654;2023-06-22T14:55:14;34.88;41.14
74661;SHT31;63191;39.566;2.654;2023-06-22T14:57:40;34.94;41.90
74661;SHT31;63191;39.566;2.654;2023-06-22T15:00:06;35.02;40.57
74661;SHT31;63191;39.566;2.654;2023-06-22T15:02:32;35.15;41.74
74661;SHT31;63191;39.566;2.654;2023-06-22T15:04:58;35.24;43.10
74661;SHT31;63191;39.566;2.654;2023-06-22T15:07:24;35.27;42.53
74661;SHT31;63191;39.566;2.654;2023-06-22T15:09:50;35.16;40.73
74661;SHT31;63191;39.566;2.654;2023-06-22T15:12:16;34.97;39.96
74661;SHT31;63191;39.566;2.654;2023-06-22T15:14:41;34.83;41.72
74661;SHT31;63191;39.566;2.654;2023-06-22T15:17:07;34.76;41.12
74661;SHT31;63191;39.566;2.654;2023-06-22T15:19:34;34.59;40.51
74661;SHT31;63191;39.566;2.654;2023-06-22T15:22:07;34.33;40.03
74661;SHT31;63191;39.566;2.654;2023-06-22T15:24:33;34.24;40.58
74661;SHT31;63191;39.566;2.654;2023-06-22T15:26:59;34.12;40.35
74661;SHT31;63191;39.566;2.654;2023-06-22T15:29:26;34.05;43.43
74661;SHT31;63191;39.566;2.654;2023-06-22T15:31:52;34.02;45.14
74661;SHT31;63191;39.566;2.654;2023-06-22T15:34:18;33.82;41.44
74661;SHT31;63191;39.566;2.654;2023-06-22T15:36:44;33.67;44.23
74661;SHT31;63191;39.566;2.654;2023-06-22T15:39:10;33.54;44.98
74661;SHT31;63191;39.566;2.654;2023-06-22T15:41:39;33.54;45.08
74661;SHT31;63191;39.566;2.654;2023-06-22T15:44:08;33.58;43.25
74661;SHT31;63191;39.566;2.654;2023-06-22T15:46:34;33.60;43.25
74661;SHT31;63191;39.566;2.654;2023-06-22T15:49:00;33.64;42.64
74661;SHT31;63191;39.566;2.654;2023-06-22T15:51:25;33.55;44.73
74661;SHT31;63191;39.566;2.654;2023-06-22T15:53:53;33.33;45.20
74661;SHT31;63191;39.566;2.654;2023-06-22T15:56:19;33.24;46.37